createdAt,value
2017-12-25T00:00:08.855Z,87.46
2017-12-25T00:00:49.408Z,86.99
2017-12-25T00:01:29.963Z,87.75
2017-12-25T00:02:10.476Z,87.46
2017-12-25T00:02:51.040Z,87.46
2017-12-25T00:03:31.601Z,87.46
2017-12-25T00:04:12.126Z,87.18
2017-12-25T00:04:52.620Z,87.08
2017-12-25T00:05:33.177Z,86.99
2017-12-25T00:06:13.728Z,87.56
2017-12-25T00:06:54.281Z,87.27
2017-12-25T00:07:34.832Z,87.27
2017-12-25T00:08:15.374Z,87.18
2017-12-25T00:08:55.919Z,86.9
2017-12-25T00:09:36.474Z,86.8
2017-12-25T00:10:16.980Z,86.8
2017-12-25T00:10:57.520Z,86.61
2017-12-25T00:11:38.072Z,86.8
2017-12-25T00:12:18.616Z,86.84
2017-12-25T00:12:59.124Z,86.75
2017-12-25T00:13:39.711Z,86.94
2017-12-25T00:14:20.238Z,86.08
2017-12-25T00:15:00.788Z,87.13
2017-12-25T00:15:41.389Z,87.13
2017-12-25T00:16:21.894Z,86.65
2017-12-25T00:17:02.481Z,86.75
2017-12-25T00:17:42.988Z,86.65
2017-12-25T00:18:23.537Z,86.18
2017-12-25T00:19:04.036Z,87.13
2017-12-25T00:19:44.566Z,87.03
2017-12-25T00:20:25.119Z,87.13
2017-12-25T00:21:05.666Z,86.84
2017-12-25T00:21:46.222Z,86.94
2017-12-25T00:22:26.780Z,86.94
2017-12-25T00:23:07.354Z,87.13
2017-12-25T00:23:47.885Z,86.8
2017-12-25T00:24:28.454Z,87.18
2017-12-25T00:25:08.982Z,86.7
2017-12-25T00:25:49.535Z,87.32
2017-12-25T00:26:30.084Z,86.99
2017-12-25T00:27:10.644Z,87.27
2017-12-25T00:27:51.179Z,87.46
2017-12-25T00:28:31.743Z,87.08
2017-12-25T00:29:12.263Z,87.08
2017-12-25T00:29:52.827Z,87.03
2017-12-25T00:30:33.429Z,87.13
2017-12-25T00:31:13.901Z,87.32
2017-12-25T00:31:54.480Z,87.03
2017-12-25T00:32:35.029Z,86.8
2017-12-25T00:33:15.563Z,87.23
2017-12-25T00:33:56.099Z,87.13
2017-12-25T00:34:36.680Z,87.18
2017-12-25T00:35:17.171Z,87.18
2017-12-25T00:35:57.739Z,87.41
2017-12-25T00:36:38.265Z,87.51
2017-12-25T00:37:18.831Z,86.65
2017-12-25T00:37:59.355Z,86.61
2017-12-25T00:38:39.924Z,87.08
2017-12-25T00:39:20.430Z,87.27
2017-12-25T00:40:00.972Z,87.27
2017-12-25T00:40:41.509Z,86.99
2017-12-25T00:41:22.032Z,86.9
2017-12-25T00:42:02.608Z,87.08
2017-12-25T00:42:43.168Z,87.27
2017-12-25T00:43:23.743Z,87.08
2017-12-25T00:44:04.234Z,87.65
2017-12-25T00:44:44.792Z,87.27
2017-12-25T00:45:25.325Z,87.23
2017-12-25T00:46:05.941Z,87.27
2017-12-25T00:46:46.447Z,87.13
2017-12-25T00:47:26.979Z,87.41
2017-12-25T00:48:07.536Z,86.8
2017-12-25T00:48:48.134Z,87.46
2017-12-25T00:49:28.629Z,87.08
2017-12-25T00:50:09.240Z,87.08
2017-12-25T00:50:49.773Z,87.08
2017-12-25T00:51:30.300Z,87.46
2017-12-25T00:52:10.862Z,87.08
2017-12-25T00:52:51.401Z,87.27
2017-12-25T00:53:31.982Z,87.18
2017-12-25T00:54:12.518Z,87.27
2017-12-25T00:54:53.050Z,87.27
2017-12-25T00:55:33.611Z,87.18
2017-12-25T00:56:14.188Z,87.37
2017-12-25T00:56:54.745Z,86.9
2017-12-25T00:57:35.274Z,87.18
2017-12-25T00:58:15.817Z,87.65
2017-12-25T00:58:56.350Z,87.65
2017-12-25T00:59:36.918Z,87.37
2017-12-25T01:00:17.518Z,87.27
2017-12-25T01:00:58.083Z,87.37
2017-12-25T01:01:38.616Z,87.18
2017-12-25T01:02:19.198Z,86.99
2017-12-25T01:02:59.674Z,87.37
2017-12-25T01:03:40.207Z,87.18
2017-12-25T01:04:20.789Z,87.46
2017-12-25T01:05:01.285Z,87.46
2017-12-25T01:05:41.825Z,87.37
2017-12-25T01:06:22.354Z,87.46
2017-12-25T01:07:02.920Z,87.46
2017-12-25T01:07:43.433Z,87.18
2017-12-25T01:08:23.969Z,86.8
2017-12-25T01:09:04.543Z,87.56
2017-12-25T01:09:45.111Z,87.08
2017-12-25T01:10:25.664Z,87.46
2017-12-25T01:11:06.194Z,87.37
2017-12-25T01:11:46.703Z,87.46
2017-12-25T01:12:27.283Z,87.27
2017-12-25T01:13:07.785Z,87.37
2017-12-25T01:13:48.322Z,87.18
2017-12-25T01:14:28.901Z,87.18
2017-12-25T01:15:09.428Z,87.08
2017-12-25T01:15:49.957Z,87.27
2017-12-25T01:16:30.523Z,87.37
2017-12-25T01:17:11.076Z,86.99
2017-12-25T01:17:51.657Z,86.99
2017-12-25T01:18:32.148Z,87.37
2017-12-25T01:19:13.464Z,87.08
2017-12-25T01:19:53.231Z,87.08
2017-12-25T01:20:33.782Z,87.37
2017-12-25T01:21:14.303Z,87.65
2017-12-25T01:21:54.866Z,87.56
2017-12-25T01:22:35.369Z,87.37
2017-12-25T01:23:15.896Z,87.46
2017-12-25T01:23:56.445Z,87.08
2017-12-25T01:24:36.995Z,87.56
2017-12-25T01:25:17.582Z,86.8
2017-12-25T01:25:58.123Z,86.99
2017-12-25T01:26:38.691Z,87.27
2017-12-25T01:27:19.192Z,87.37
2017-12-25T01:27:59.806Z,87.46
2017-12-25T01:30:13.069Z,87.08
2017-12-25T01:30:53.634Z,87.18
2017-12-25T01:31:34.162Z,86.9
2017-12-25T01:32:14.718Z,87.18
2017-12-25T01:32:55.247Z,87.46
2017-12-25T01:33:35.749Z,87.08
2017-12-25T01:34:16.294Z,87.46
2017-12-25T01:34:56.836Z,87.46
2017-12-25T01:35:37.354Z,87.46
2017-12-25T01:36:17.880Z,87.65
2017-12-25T01:36:58.416Z,87.56
2017-12-25T01:37:38.976Z,87.37
2017-12-25T01:38:19.512Z,87.37
2017-12-25T01:39:00.069Z,87.37
2017-12-25T01:39:40.612Z,87.37
2017-12-25T01:40:21.151Z,87.37
2017-12-25T01:41:01.701Z,87.27
2017-12-25T01:41:42.248Z,87.56
2017-12-25T01:42:22.751Z,87.27
2017-12-25T01:43:03.288Z,87.46
2017-12-25T01:43:43.850Z,87.65
2017-12-25T01:44:24.424Z,87.18
2017-12-25T01:45:04.955Z,87.56
2017-12-25T01:45:45.491Z,87.46
2017-12-25T01:46:26.025Z,87.37
2017-12-25T01:47:06.572Z,87.56
2017-12-25T01:47:47.128Z,87.46
2017-12-25T01:48:27.677Z,87.18
2017-12-25T01:49:08.252Z,87.08
2017-12-25T01:49:48.758Z,87.46
2017-12-25T01:50:29.286Z,87.37
2017-12-25T01:51:09.843Z,87.37
2017-12-25T01:51:50.383Z,87.08
2017-12-25T01:52:30.885Z,87.18
2017-12-25T01:53:11.427Z,87.08
2017-12-25T01:53:51.983Z,87.08
2017-12-25T01:54:32.538Z,87.46
2017-12-25T01:55:13.065Z,87.18
2017-12-25T01:55:53.616Z,87.18
2017-12-25T01:56:34.173Z,86.99
2017-12-25T01:57:14.753Z,86.99
2017-12-25T01:57:55.219Z,87.08
2017-12-25T01:58:35.746Z,87.08
2017-12-25T01:59:16.272Z,86.94
2017-12-25T01:59:56.814Z,86.61
2017-12-25T02:00:37.339Z,86.61
2017-12-25T02:01:17.907Z,86.7
2017-12-25T02:01:58.451Z,86.99
2017-12-25T02:02:39.069Z,86.51
2017-12-25T02:03:19.616Z,86.61
2017-12-25T02:04:00.213Z,86.99
2017-12-25T02:04:40.761Z,86.61
2017-12-25T02:05:21.324Z,86.7
2017-12-25T02:06:01.883Z,87.08
2017-12-25T02:06:42.415Z,86.9
2017-12-25T02:07:22.948Z,86.99
2017-12-25T02:08:03.483Z,86.8
2017-12-25T02:08:44.055Z,86.8
2017-12-25T02:09:24.643Z,86.9
2017-12-25T02:10:05.180Z,86.61
2017-12-25T02:10:45.672Z,86.7
2017-12-25T02:11:26.234Z,86.8
2017-12-25T02:12:06.770Z,87.18
2017-12-25T02:12:47.267Z,86.8
2017-12-25T02:13:27.833Z,86.8
2017-12-25T02:14:08.380Z,86.9
2017-12-25T02:14:48.909Z,87.13
2017-12-25T02:15:29.501Z,86.94
2017-12-25T02:16:10.033Z,87.08
2017-12-25T02:16:50.565Z,86.99
2017-12-25T02:17:31.091Z,86.42
2017-12-25T02:18:11.656Z,86.42
2017-12-25T02:18:52.230Z,86.22
2017-12-25T02:19:32.809Z,86.8
2017-12-25T02:20:13.334Z,86.7
2017-12-25T02:20:53.891Z,86.9
2017-12-25T02:21:34.419Z,87.08
2017-12-25T02:22:14.934Z,86.9
2017-12-25T02:22:55.501Z,86.9
2017-12-25T02:23:35.998Z,87.08
2017-12-25T02:24:16.534Z,87.18
2017-12-25T02:24:57.090Z,87.18
2017-12-25T02:25:37.597Z,87.37
2017-12-25T02:26:18.135Z,87.08
2017-12-25T02:26:58.658Z,87.46
2017-12-25T02:27:39.257Z,87.46
2017-12-25T02:28:19.769Z,87.18
2017-12-25T02:29:00.295Z,86.9
2017-12-25T02:29:40.837Z,86.7
2017-12-25T02:30:21.382Z,86.7
2017-12-25T02:31:01.930Z,87.18
2017-12-25T02:31:42.482Z,87.27
2017-12-25T02:32:23.010Z,87.08
2017-12-25T02:33:03.576Z,87.18
2017-12-25T02:33:44.163Z,86.99
2017-12-25T02:34:24.650Z,86.61
2017-12-25T02:35:05.206Z,86.99
2017-12-25T02:35:45.741Z,87.18
2017-12-25T02:36:26.286Z,86.99
2017-12-25T02:37:06.823Z,86.99
2017-12-25T02:37:47.363Z,86.42
2017-12-25T02:38:27.878Z,86.51
2017-12-25T02:39:08.420Z,86.32
2017-12-25T02:39:48.969Z,86.7
2017-12-25T02:40:29.565Z,86.04
2017-12-25T02:41:10.083Z,86.32
2017-12-25T02:41:50.634Z,86.9
2017-12-25T02:42:31.163Z,86.8
2017-12-25T02:43:11.702Z,86.22
2017-12-25T02:43:52.278Z,86.61
2017-12-25T02:44:32.825Z,86.22
2017-12-25T02:45:13.303Z,86.61
2017-12-25T02:45:53.834Z,86.04
2017-12-25T02:46:34.375Z,87.08
2017-12-25T02:47:14.937Z,86.9
2017-12-25T02:47:55.484Z,86.8
2017-12-25T02:48:36.587Z,87.18
2017-12-25T02:49:17.128Z,86.7
2017-12-25T02:49:57.605Z,86.8
2017-12-25T02:50:38.143Z,86.9
2017-12-25T02:51:18.686Z,86.8
2017-12-25T02:51:59.238Z,86.61
2017-12-25T02:52:39.754Z,86.8
2017-12-25T02:53:20.322Z,86.9
2017-12-25T02:54:00.863Z,86.9
2017-12-25T02:54:41.418Z,86.9
2017-12-25T02:55:21.964Z,86.8
2017-12-25T02:56:02.487Z,86.8
2017-12-25T02:56:43.048Z,86.51
2017-12-25T02:57:23.593Z,86.61
2017-12-25T02:58:04.091Z,86.61
2017-12-25T02:58:44.624Z,86.7
2017-12-25T02:59:25.157Z,86.8
2017-12-25T03:00:05.736Z,86.9
2017-12-25T03:00:46.226Z,86.61
2017-12-25T03:01:26.807Z,86.99
2017-12-25T03:02:07.399Z,86.8
2017-12-25T03:02:47.952Z,86.8
2017-12-25T03:03:28.492Z,86.99
2017-12-25T03:04:09.062Z,87.27
2017-12-25T03:04:49.545Z,86.8
2017-12-25T03:05:30.103Z,87.18
2017-12-25T03:06:10.655Z,87.18
2017-12-25T03:06:51.175Z,87.18
2017-12-25T03:07:31.723Z,87.18
2017-12-25T03:08:12.264Z,86.99
2017-12-25T03:08:52.883Z,86.8
2017-12-25T03:09:33.416Z,86.8
2017-12-25T03:10:13.910Z,86.99
2017-12-25T03:10:54.459Z,86.8
2017-12-25T03:11:35.010Z,86.8
2017-12-25T03:12:15.517Z,86.8
2017-12-25T03:12:56.053Z,86.7
2017-12-25T03:13:36.589Z,87.08
2017-12-25T03:14:17.147Z,86.9
2017-12-25T03:14:57.680Z,86.8
2017-12-25T03:15:38.221Z,86.99
2017-12-25T03:16:18.762Z,86.9
2017-12-25T03:16:59.245Z,86.8
2017-12-25T03:17:39.788Z,86.7
2017-12-25T03:18:20.321Z,86.32
2017-12-25T03:19:00.844Z,86.99
2017-12-25T03:19:41.443Z,86.9
2017-12-25T03:20:21.922Z,87.08
2017-12-25T03:21:02.474Z,86.61
2017-12-25T03:21:42.997Z,87.27
2017-12-25T03:22:23.508Z,86.61
2017-12-25T03:23:04.033Z,87.08
2017-12-25T03:23:44.579Z,86.7
2017-12-25T03:24:25.119Z,86.9
2017-12-25T03:25:05.677Z,87.08
2017-12-25T03:25:46.246Z,87.27
2017-12-25T03:26:26.778Z,86.61
2017-12-25T03:27:07.316Z,86.61
2017-12-25T03:27:47.881Z,86.8
2017-12-25T03:28:28.393Z,86.51
2017-12-25T03:29:08.943Z,86.7
2017-12-25T03:29:49.516Z,86.99
2017-12-25T03:30:30.028Z,86.7
2017-12-25T03:31:10.540Z,86.61
2017-12-25T03:31:51.079Z,86.99
2017-12-25T03:32:31.622Z,86.7
2017-12-25T03:33:12.186Z,86.9
2017-12-25T03:33:52.733Z,87.08
2017-12-25T03:34:33.307Z,86.7
2017-12-25T03:35:13.818Z,86.7
2017-12-25T03:35:54.366Z,86.7
2017-12-25T03:36:34.941Z,87.27
2017-12-25T03:37:15.509Z,87.13
2017-12-25T03:37:56.080Z,87.52
2017-12-25T03:38:36.583Z,87.27
2017-12-25T03:39:17.182Z,87.08
2017-12-25T03:39:57.687Z,87.46
2017-12-25T03:40:38.205Z,87.08
2017-12-25T03:41:18.768Z,87.52
2017-12-25T03:41:59.336Z,87.56
2017-12-25T03:42:39.874Z,87.27
2017-12-25T03:43:20.415Z,87.71
2017-12-25T03:44:01.214Z,87.56
2017-12-25T03:44:41.724Z,87.46
2017-12-25T03:45:22.274Z,87.18
2017-12-25T03:46:02.846Z,87.75
2017-12-25T03:46:43.374Z,87.52
2017-12-25T03:47:23.910Z,87.61
2017-12-25T03:48:04.430Z,87.37
2017-12-25T03:48:44.966Z,87.65
2017-12-25T03:49:25.496Z,87.46
2017-12-25T03:50:06.075Z,86.99
2017-12-25T03:50:46.587Z,87.37
2017-12-25T03:51:27.119Z,86.7
2017-12-25T03:52:07.701Z,86.61
2017-12-25T03:52:48.253Z,87.08
2017-12-25T03:53:28.794Z,86.7
2017-12-25T03:54:09.350Z,86.32
2017-12-25T03:54:49.902Z,86.22
2017-12-25T03:55:30.487Z,86.61
2017-12-25T03:56:10.995Z,86.99
2017-12-25T03:56:51.541Z,87.08
2017-12-25T03:57:32.084Z,86.99
2017-12-25T03:58:12.616Z,86.7
2017-12-25T03:58:53.159Z,86.7
2017-12-25T03:59:33.690Z,87.08
2017-12-25T04:00:14.229Z,87.08
2017-12-25T04:00:54.819Z,87.08
2017-12-25T04:01:35.309Z,87.08
2017-12-25T04:02:15.838Z,86.32
2017-12-25T04:02:56.375Z,86.32
2017-12-25T04:03:36.924Z,86.51
2017-12-25T04:04:17.460Z,86.32
2017-12-25T04:04:58.013Z,86.51
2017-12-25T04:05:38.504Z,86.61
2017-12-25T04:06:19.115Z,86.51
2017-12-25T04:06:59.648Z,86.9
2017-12-25T04:07:40.151Z,86.9
2017-12-25T04:08:20.694Z,86.7
2017-12-25T04:09:01.238Z,86.8
2017-12-25T04:09:41.755Z,86.42
2017-12-25T04:10:22.390Z,86.32
2017-12-25T04:11:02.919Z,86.51
2017-12-25T04:11:43.414Z,86.22
2017-12-25T04:12:23.950Z,86.13
2017-12-25T04:13:04.487Z,86.61
2017-12-25T04:13:45.051Z,86.42
2017-12-25T04:14:25.595Z,86.32
2017-12-25T04:15:06.131Z,86.42
2017-12-25T04:15:46.664Z,86.51
2017-12-25T04:16:27.265Z,86.32
2017-12-25T04:17:07.829Z,86.32
2017-12-25T04:17:48.332Z,86.32
2017-12-25T04:18:28.871Z,86.61
2017-12-25T04:19:09.432Z,86.61
2017-12-25T04:19:50.003Z,86.22
2017-12-25T04:20:30.530Z,86.42
2017-12-25T04:21:11.085Z,86.22
2017-12-25T04:21:51.625Z,86.42
2017-12-25T04:22:32.232Z,86.32
2017-12-25T04:23:12.749Z,86.42
2017-12-25T04:23:53.267Z,86.32
2017-12-25T04:24:33.814Z,86.42
2017-12-25T04:25:14.357Z,86.61
2017-12-25T04:25:54.911Z,86.42
2017-12-25T04:26:35.457Z,86.04
2017-12-25T04:27:15.995Z,86.61
2017-12-25T04:27:56.563Z,86.04
2017-12-25T04:28:37.164Z,86.22
2017-12-25T04:29:17.687Z,86.22
2017-12-25T04:29:58.215Z,86.9
2017-12-25T04:30:38.745Z,87.08
2017-12-25T04:31:19.267Z,87.08
2017-12-25T04:31:59.834Z,86.7
2017-12-25T04:32:40.324Z,87.42
2017-12-25T04:33:20.855Z,87.13
2017-12-25T04:34:01.407Z,87.23
2017-12-25T04:34:41.973Z,86.99
2017-12-25T04:35:22.464Z,86.8
2017-12-25T04:36:03.019Z,86.9
2017-12-25T04:36:43.613Z,87.27
2017-12-25T04:37:24.171Z,86.8
2017-12-25T04:38:04.670Z,86.99
2017-12-25T04:38:45.224Z,86.99
2017-12-25T04:39:25.764Z,87.08
2017-12-25T04:40:06.356Z,86.42
2017-12-25T04:40:46.845Z,86.51
2017-12-25T04:41:27.437Z,86.04
2017-12-25T04:42:07.932Z,86.7
2017-12-25T04:42:48.479Z,86.99
2017-12-25T04:43:29.005Z,86.42
2017-12-25T04:44:09.579Z,86.42
2017-12-25T04:44:50.087Z,86.22
2017-12-25T04:45:30.650Z,86.7
2017-12-25T04:46:11.220Z,86.32
2017-12-25T04:46:51.747Z,86.04
2017-12-25T04:47:32.294Z,86.22
2017-12-25T04:48:12.801Z,86.04
2017-12-25T04:48:53.386Z,86.13
2017-12-25T04:49:33.862Z,86.32
2017-12-25T04:50:14.383Z,86.32
2017-12-25T04:50:54.901Z,86.32
2017-12-25T04:51:35.461Z,85.85
2017-12-25T04:52:15.981Z,86.32
2017-12-25T04:52:56.544Z,86.42
2017-12-25T04:53:37.069Z,86.51
2017-12-25T04:54:17.647Z,86.51
2017-12-25T04:54:58.177Z,86.51
2017-12-25T04:55:38.727Z,86.42
2017-12-25T04:56:19.312Z,86.61
2017-12-25T04:56:59.840Z,86.22
2017-12-25T04:57:40.443Z,86.42
2017-12-25T04:58:20.999Z,86.32
2017-12-25T04:59:01.524Z,86.61
2017-12-25T04:59:42.055Z,86.51
2017-12-25T05:00:22.606Z,86.51
2017-12-25T05:01:03.148Z,86.22
2017-12-25T05:01:43.727Z,85.85
2017-12-25T05:02:24.269Z,86.61
2017-12-25T05:03:04.816Z,86.7
2017-12-25T05:03:45.349Z,86.7
2017-12-25T05:04:25.871Z,86.42
2017-12-25T05:05:06.437Z,86.32
2017-12-25T05:05:46.988Z,86.51
2017-12-25T05:06:27.680Z,86.13
2017-12-25T05:07:08.566Z,85.94
2017-12-25T05:07:49.100Z,86.22
2017-12-25T05:08:29.660Z,86.32
2017-12-25T05:09:10.227Z,86.8
2017-12-25T05:09:50.770Z,86.22
2017-12-25T05:10:31.276Z,86.22
2017-12-25T05:11:11.853Z,86.18
2017-12-25T05:11:52.346Z,86.57
2017-12-25T05:12:32.896Z,86.66
2017-12-25T05:13:13.441Z,86.7
2017-12-25T05:13:54.014Z,86.94
2017-12-25T05:14:34.571Z,86.76
2017-12-25T05:15:15.105Z,87.23
2017-12-25T05:15:55.638Z,87.08
2017-12-25T05:16:36.200Z,86.76
2017-12-25T05:17:16.753Z,86.94
2017-12-25T05:17:57.263Z,86.76
2017-12-25T05:18:37.795Z,87.13
2017-12-25T05:19:18.991Z,87.32
2017-12-25T05:19:59.503Z,87.04
2017-12-25T05:20:40.057Z,87.42
2017-12-25T05:21:20.615Z,86.99
2017-12-25T05:22:01.180Z,87.23
2017-12-25T05:22:41.726Z,87.42
2017-12-25T05:23:22.280Z,87.61
2017-12-25T05:24:02.847Z,87.23
2017-12-25T05:24:43.320Z,86.94
2017-12-25T05:25:23.859Z,87.27
2017-12-25T05:26:04.403Z,87.18
2017-12-25T05:26:44.947Z,86.94
2017-12-25T05:27:25.541Z,87.18
2017-12-25T05:28:06.074Z,86.57
2017-12-25T05:28:46.592Z,87.13
2017-12-25T05:29:27.112Z,87.42
2017-12-25T05:30:07.647Z,87.04
2017-12-25T05:30:48.156Z,87.13
2017-12-25T05:31:28.677Z,87.13
2017-12-25T05:32:09.200Z,87.23
2017-12-25T05:32:49.773Z,87.32
2017-12-25T05:33:30.311Z,87.13
2017-12-25T05:34:10.898Z,86.76
2017-12-25T05:34:51.417Z,86.94
2017-12-25T05:35:31.964Z,87.42
2017-12-25T05:36:12.464Z,87.8
2017-12-25T05:36:52.990Z,87.13
2017-12-25T05:37:33.518Z,87.42
2017-12-25T05:38:14.067Z,87.52
2017-12-25T05:38:55.552Z,87.52
2017-12-25T05:39:36.096Z,87.52
2017-12-25T05:40:16.629Z,87.32
2017-12-25T05:40:57.157Z,87.04
2017-12-25T05:41:37.682Z,87.04
2017-12-25T05:42:18.218Z,87.52
2017-12-25T05:42:58.738Z,87.71
2017-12-25T05:43:39.306Z,87.61
2017-12-25T05:44:19.837Z,87.61
2017-12-25T05:45:00.388Z,87.04
2017-12-25T05:45:40.882Z,87.04
2017-12-25T05:46:21.435Z,87.04
2017-12-25T05:47:02.012Z,87.42
2017-12-25T05:47:42.555Z,87.13
2017-12-25T05:48:23.142Z,87.42
2017-12-25T05:49:03.668Z,86.85
2017-12-25T05:49:44.270Z,87.04
2017-12-25T05:50:24.825Z,87.13
2017-12-25T05:51:05.345Z,86.85
2017-12-25T05:51:45.895Z,87.23
2017-12-25T05:52:26.423Z,87.42
2017-12-25T05:53:06.940Z,87.23
2017-12-25T05:53:47.490Z,86.94
2017-12-25T05:54:28.067Z,86.85
2017-12-25T05:55:08.540Z,87.13
2017-12-25T05:55:49.048Z,87.52
2017-12-25T05:56:29.647Z,87.32
2017-12-25T05:57:10.133Z,87.23
2017-12-25T05:57:50.695Z,87.42
2017-12-25T05:58:31.267Z,87.23
2017-12-25T05:59:11.782Z,87.42
2017-12-25T05:59:52.352Z,87.32
2017-12-25T06:00:32.870Z,87.13
2017-12-25T06:01:13.433Z,87.04
2017-12-25T06:01:54.025Z,87.52
2017-12-25T06:02:34.501Z,87.52
2017-12-25T06:03:15.075Z,87.04
2017-12-25T06:03:55.620Z,87.04
2017-12-25T06:04:36.127Z,87.71
2017-12-25T06:05:16.713Z,86.94
2017-12-25T06:05:57.228Z,87.23
2017-12-25T06:06:37.727Z,87.32
2017-12-25T06:07:18.298Z,87.23
2017-12-25T06:07:58.839Z,87.13
2017-12-25T06:08:39.405Z,87.61
2017-12-25T06:09:19.942Z,87.13
2017-12-25T06:10:00.496Z,87.23
2017-12-25T06:10:41.056Z,87.04
2017-12-25T06:11:21.638Z,87.13
2017-12-25T06:12:02.205Z,87.23
2017-12-25T06:12:42.724Z,87.13
2017-12-25T06:13:23.288Z,87.23
2017-12-25T06:14:03.841Z,87.13
2017-12-25T06:14:44.397Z,87.04
2017-12-25T06:15:24.937Z,87.04
2017-12-25T06:16:05.432Z,87.13
2017-12-25T06:16:45.953Z,87.23
2017-12-25T06:17:26.522Z,86.66
2017-12-25T06:18:07.052Z,86.94
2017-12-25T06:18:47.599Z,86.47
2017-12-25T06:19:28.101Z,86.66
2017-12-25T06:20:08.613Z,86.76
2017-12-25T06:20:49.184Z,86.76
2017-12-25T06:21:29.751Z,86.66
2017-12-25T06:22:10.271Z,86.76
2017-12-25T06:22:50.819Z,86.66
2017-12-25T06:23:31.358Z,86.85
2017-12-25T06:24:11.886Z,86.94
2017-12-25T06:24:53.223Z,87.32
2017-12-25T06:25:32.937Z,87.23
2017-12-25T06:26:13.471Z,86.94
2017-12-25T06:26:54.013Z,86.57
2017-12-25T06:27:34.576Z,86.57
2017-12-25T06:28:15.071Z,87.42
2017-12-25T06:28:55.629Z,86.94
2017-12-25T06:29:36.154Z,86.85
2017-12-25T06:30:16.740Z,86.76
2017-12-25T06:30:57.318Z,87.04
2017-12-25T06:31:37.830Z,86.38
2017-12-25T06:32:18.994Z,87.13
2017-12-25T06:32:59.512Z,86.94
2017-12-25T06:33:40.054Z,86.94
2017-12-25T06:34:20.587Z,86.94
2017-12-25T06:35:01.091Z,87.32
2017-12-25T06:35:41.653Z,86.66
2017-12-25T06:36:22.227Z,87.23
2017-12-25T06:37:02.807Z,87.04
2017-12-25T06:37:43.274Z,87.13
2017-12-25T06:38:23.804Z,87.23
2017-12-25T06:39:04.342Z,87.28
2017-12-25T06:39:44.915Z,87.13
2017-12-25T06:40:25.508Z,86.99
2017-12-25T06:41:06.029Z,86.99
2017-12-25T06:41:46.585Z,87.19
2017-12-25T06:42:27.092Z,87.23
2017-12-25T06:43:07.636Z,87.23
2017-12-25T06:43:48.141Z,87.52
2017-12-25T06:44:28.688Z,87.23
2017-12-25T06:45:09.184Z,87.04
2017-12-25T06:45:49.773Z,86.85
2017-12-25T06:46:30.286Z,87.04
2017-12-25T06:47:10.822Z,87.04
2017-12-25T06:47:51.355Z,86.94
2017-12-25T06:48:31.871Z,87.09
2017-12-25T06:49:12.418Z,87.71
2017-12-25T06:49:52.977Z,86.94
2017-12-25T06:50:33.558Z,87.13
2017-12-25T06:51:14.048Z,87.23
2017-12-25T06:51:54.600Z,86.99
2017-12-25T06:52:35.125Z,86.71
2017-12-25T06:53:15.672Z,87.42
2017-12-25T06:53:56.247Z,87.8
2017-12-25T06:54:36.766Z,87.71
2017-12-25T06:55:17.297Z,86.99
2017-12-25T06:55:57.871Z,87.47
2017-12-25T06:56:38.368Z,87.71
2017-12-25T06:57:18.921Z,87.23
2017-12-25T06:57:59.428Z,87.47
2017-12-25T06:58:39.966Z,87.38
2017-12-25T06:59:20.528Z,86.99
2017-12-25T07:00:01.012Z,87.38
2017-12-25T07:00:41.551Z,87.66
2017-12-25T07:01:22.077Z,87.28
2017-12-25T07:02:02.620Z,87.52
2017-12-25T07:02:43.172Z,87.38
2017-12-25T07:03:23.666Z,87.13
2017-12-25T07:04:04.257Z,86.8
2017-12-25T07:04:44.770Z,87.19
2017-12-25T07:05:25.307Z,87.66
2017-12-25T07:06:05.858Z,87.38
2017-12-25T07:06:46.388Z,87.38
2017-12-25T07:07:26.900Z,87.52
2017-12-25T07:08:07.418Z,87.23
2017-12-25T07:08:47.991Z,87.38
2017-12-25T07:09:28.538Z,87.38
2017-12-25T07:10:09.059Z,87.66
2017-12-25T07:10:49.611Z,87.47
2017-12-25T07:11:30.158Z,87.66
2017-12-25T07:12:10.691Z,87.32
2017-12-25T07:12:51.223Z,87.09
2017-12-25T07:13:31.760Z,87.09
2017-12-25T07:14:12.251Z,87.28
2017-12-25T07:14:52.786Z,87.19
2017-12-25T07:15:33.335Z,86.9
2017-12-25T07:16:13.867Z,87.19
2017-12-25T07:16:54.431Z,87.28
2017-12-25T07:17:34.959Z,87.19
2017-12-25T07:18:15.527Z,87.19
2017-12-25T07:18:56.068Z,86.9
2017-12-25T07:19:36.605Z,87.04
2017-12-25T07:20:17.166Z,86.66
2017-12-25T07:20:57.642Z,86.61
2017-12-25T07:21:38.212Z,86.8
2017-12-25T07:22:18.741Z,86.76
2017-12-25T07:22:59.270Z,86.66
2017-12-25T07:23:39.815Z,86.76
2017-12-25T07:24:20.328Z,86.57
2017-12-25T07:25:00.872Z,86.28
2017-12-25T07:25:41.434Z,86.05
2017-12-25T07:26:21.941Z,86.61
2017-12-25T07:27:02.481Z,86.28
2017-12-25T07:27:42.993Z,86.47
2017-12-25T07:28:23.527Z,86.43
2017-12-25T07:29:04.058Z,86.43
2017-12-25T07:29:44.634Z,86.52
2017-12-25T07:30:25.187Z,86.14
2017-12-25T07:31:05.717Z,86.9
2017-12-25T07:31:46.264Z,86.8
2017-12-25T07:32:26.827Z,86.94
2017-12-25T07:33:07.379Z,86.99
2017-12-25T07:33:47.926Z,86.57
2017-12-25T07:34:28.448Z,86.05
2017-12-25T07:35:09.009Z,86.76
2017-12-25T07:35:49.528Z,86.57
2017-12-25T07:36:30.095Z,86.28
2017-12-25T07:37:10.582Z,86.09
2017-12-25T07:37:51.140Z,86.18
2017-12-25T07:38:31.669Z,86.09
2017-12-25T07:39:12.220Z,85.71
2017-12-25T07:39:52.755Z,85.99
2017-12-25T07:40:33.312Z,85.95
2017-12-25T07:41:13.882Z,85.8
2017-12-25T07:41:54.401Z,86.09
2017-12-25T07:42:34.968Z,85.61
2017-12-25T07:43:15.501Z,85.66
2017-12-25T07:43:56.072Z,86.05
2017-12-25T07:44:36.625Z,85.66
2017-12-25T07:45:17.160Z,86.43
2017-12-25T07:45:57.736Z,86.61
2017-12-25T07:46:38.262Z,86.33
2017-12-25T07:47:18.802Z,85.95
2017-12-25T07:47:59.324Z,87.19
2017-12-25T07:48:39.813Z,86.9
2017-12-25T07:49:20.384Z,86.8
2017-12-25T07:50:00.926Z,86.14
2017-12-25T07:50:41.466Z,86.28
2017-12-25T07:51:21.991Z,85.71
2017-12-25T07:52:02.536Z,85.8
2017-12-25T07:52:43.034Z,86.09
2017-12-25T07:53:23.585Z,85.71
2017-12-25T07:54:04.122Z,86.09
2017-12-25T07:54:44.641Z,85.8
2017-12-25T07:55:25.191Z,85.57
2017-12-25T07:56:05.709Z,86.33
2017-12-25T07:56:46.251Z,86.52
2017-12-25T07:57:26.782Z,86.14
2017-12-25T07:58:07.327Z,86.24
2017-12-25T07:58:47.898Z,86.33
2017-12-25T07:59:28.404Z,86.61
2017-12-25T08:00:08.982Z,86.24
2017-12-25T08:00:49.507Z,86.43
2017-12-25T08:01:30.038Z,85.95
2017-12-25T08:02:10.551Z,86.38
2017-12-25T08:02:51.097Z,86.43
2017-12-25T08:03:31.618Z,85.71
2017-12-25T08:04:12.185Z,85.71
2017-12-25T08:04:52.717Z,85.42
2017-12-25T08:05:33.285Z,85.8
2017-12-25T08:06:13.823Z,85.42
2017-12-25T08:06:54.399Z,85.71
2017-12-25T08:07:34.930Z,85.8
2017-12-25T08:08:15.460Z,85.04
2017-12-25T08:08:56.018Z,85
2017-12-25T08:09:36.573Z,85.24
2017-12-25T08:10:17.091Z,84.91
2017-12-25T08:10:57.660Z,85.1
2017-12-25T08:11:38.178Z,85.57
2017-12-25T08:12:18.748Z,85.86
2017-12-25T08:12:59.292Z,85.76
2017-12-25T08:13:39.867Z,85.57
2017-12-25T08:14:20.408Z,86.24
2017-12-25T08:15:00.988Z,85.47
2017-12-25T08:15:41.489Z,85.52
2017-12-25T08:16:22.038Z,85.66
2017-12-25T08:17:02.575Z,85.57
2017-12-25T08:17:43.089Z,85.76
2017-12-25T08:18:23.616Z,86.14
2017-12-25T08:19:04.174Z,86.33
2017-12-25T08:19:44.695Z,85.95
2017-12-25T08:20:25.204Z,85.95
2017-12-25T08:21:05.794Z,85.47
2017-12-25T08:21:46.287Z,85
2017-12-25T08:22:26.842Z,85.14
2017-12-25T08:23:07.398Z,85
2017-12-25T08:23:47.907Z,85.42
2017-12-25T08:24:28.439Z,85.04
2017-12-25T08:25:09.004Z,85.24
2017-12-25T08:25:49.563Z,85.42
2017-12-25T08:26:30.059Z,85.61
2017-12-25T08:27:10.574Z,84.76
2017-12-25T08:27:51.171Z,84.85
2017-12-25T08:28:31.637Z,84.19
2017-12-25T08:29:12.180Z,84.95
2017-12-25T08:29:52.714Z,84.47
2017-12-25T08:30:33.287Z,84.38
2017-12-25T08:31:13.843Z,84.76
2017-12-25T08:31:54.352Z,84.38
2017-12-25T08:32:34.916Z,84.56
2017-12-25T08:33:15.473Z,84.76
2017-12-25T08:33:56.024Z,84.85
2017-12-25T08:34:36.572Z,84.85
2017-12-25T08:35:17.106Z,84.62
2017-12-25T08:35:57.653Z,84.47
2017-12-25T08:36:38.183Z,84.38
2017-12-25T08:37:18.756Z,84.66
2017-12-25T08:37:59.285Z,84.56
2017-12-25T08:38:39.852Z,84.56
2017-12-25T08:39:20.373Z,84.28
2017-12-25T08:40:00.915Z,84.38
2017-12-25T08:40:41.482Z,84
2017-12-25T08:41:21.980Z,84.19
2017-12-25T08:42:02.525Z,83.9
2017-12-25T08:42:43.053Z,83.62
2017-12-25T08:43:23.591Z,83.81
2017-12-25T08:44:04.134Z,83.33
2017-12-25T08:44:44.715Z,83.23
2017-12-25T08:45:25.245Z,83.04
2017-12-25T08:46:05.827Z,82.86